createdAt,value
2018-01-01T00:02:10.183Z,99908.66
2018-01-01T00:04:36.558Z,99907.91
2018-01-01T00:07:02.999Z,99905.60
2018-01-01T00:09:29.415Z,99904.59
2018-01-01T00:11:55.763Z,99906.50
2018-01-01T00:14:22.177Z,99899.86
2018-01-01T00:16:48.598Z,99902.90
2018-01-01T00:19:14.988Z,99901.50
2018-01-01T00:21:41.374Z,99898.81
2018-01-01T00:24:07.803Z,99895.84
2018-01-01T00:26:34.196Z,99894.16
2018-01-01T00:29:00.582Z,99891.56
2018-01-01T00:31:27.019Z,99891.11
2018-01-01T00:33:53.397Z,99891.49
2018-01-01T00:36:19.831Z,99897.19
2018-01-01T00:38:46.286Z,99897.02
2018-01-01T00:41:12.703Z,99899.68
2018-01-01T00:43:39.166Z,99902.28
2018-01-01T00:46:05.541Z,99899.25
2018-01-01T00:48:31.935Z,99898.95
2018-01-01T00:50:58.341Z,99895.47
2018-01-01T00:53:24.718Z,99891.05
2018-01-01T00:55:51.068Z,99894.08
2018-01-01T00:58:17.451Z,99890.73
2018-01-01T01:00:43.912Z,99885.82
2018-01-01T01:03:10.319Z,99886.88
2018-01-01T01:05:36.734Z,99885.31
2018-01-01T01:08:03.163Z,99886.07
2018-01-01T01:10:29.596Z,99881.62
2018-01-01T01:12:56.027Z,99879.06
2018-01-01T01:15:22.479Z,99876.15
2018-01-01T01:17:48.867Z,99874.02
2018-01-01T01:20:15.271Z,99872.53
2018-01-01T01:22:41.716Z,99863.97
2018-01-01T01:25:08.117Z,99858.13
2018-01-01T01:27:34.503Z,99856.58
2018-01-01T01:30:00.928Z,99855.38
2018-01-01T01:32:27.314Z,99854.88
2018-01-01T01:34:53.691Z,99855.77
2018-01-01T01:37:20.167Z,99844.41
2018-01-01T01:39:46.562Z,99839.50
2018-01-01T01:42:12.975Z,99838.00
2018-01-01T01:44:39.419Z,99842.36
2018-01-01T01:47:05.859Z,99836.34
2018-01-01T01:49:32.270Z,99823.36
2018-01-01T01:51:58.783Z,99817.64
2018-01-01T01:54:25.191Z,99816.03
2018-01-01T01:56:51.583Z,99809.42
2018-01-01T01:59:18.023Z,99806.25
2018-01-01T02:01:44.434Z,99805.26
2018-01-01T02:04:10.831Z,99797.58
2018-01-01T02:06:37.284Z,99797.52
2018-01-01T02:09:03.812Z,99793.59
2018-01-01T02:11:30.217Z,99800.56
2018-01-01T02:13:56.611Z,99807.03
2018-01-01T02:16:23.020Z,99812.17
2018-01-01T02:18:49.396Z,99806.91
2018-01-01T02:21:15.850Z,99816.20
2018-01-01T02:23:42.215Z,99810.16
2018-01-01T02:26:08.587Z,99801.16
2018-01-01T02:28:35.046Z,99803.22
2018-01-01T02:31:01.450Z,99799.41
2018-01-01T02:33:27.913Z,99799.85
2018-01-01T02:35:54.394Z,99802.72
2018-01-01T02:38:20.839Z,99803.05
2018-01-01T02:40:47.243Z,99798.00
2018-01-01T02:43:13.719Z,99795.30
2018-01-01T02:45:40.099Z,99797.45
2018-01-01T02:48:06.480Z,99797.25
2018-01-01T02:50:32.898Z,99796.70
2018-01-01T02:52:59.323Z,99796.16
2018-01-01T02:55:25.760Z,99791.20
2018-01-01T02:57:52.223Z,99788.39
2018-01-01T03:00:18.591Z,99788.98
2018-01-01T03:02:44.990Z,99795.30
2018-01-01T03:05:11.528Z,99793.20
2018-01-01T03:07:37.985Z,99789.66
2018-01-01T03:10:04.387Z,99795.09
2018-01-01T03:12:30.843Z,99792.80
2018-01-01T03:14:57.257Z,99795.80
2018-01-01T03:17:23.791Z,99794.94
2018-01-01T03:19:50.255Z,99792.19
2018-01-01T03:22:16.659Z,99791.18
2018-01-01T03:24:43.074Z,99792.30
2018-01-01T03:27:09.524Z,99795.58
2018-01-01T03:29:35.911Z,99791.49
2018-01-01T03:32:02.343Z,99798.73
2018-01-01T03:34:28.830Z,99799.47
2018-01-01T03:36:55.203Z,99795.52
2018-01-01T03:39:21.579Z,99788.02
2018-01-01T03:41:48.057Z,99787.64
2018-01-01T03:44:14.443Z,99785.44
2018-01-01T03:46:40.815Z,99789.57
2018-01-01T03:49:07.247Z,99791.52
2018-01-01T03:51:33.627Z,99787.13
2018-01-01T03:54:00.035Z,99781.83
2018-01-01T03:56:26.480Z,99786.73
2018-01-01T03:58:52.878Z,99783.38
2018-01-01T04:01:19.327Z,99786.69
2018-01-01T04:03:45.712Z,99782.90
2018-01-01T04:06:12.055Z,99784.52
2018-01-01T04:08:38.394Z,99782.47
2018-01-01T04:11:04.807Z,99782.25
2018-01-01T04:13:31.192Z,99782.67
2018-01-01T04:15:57.620Z,99775.61
2018-01-01T04:18:24.107Z,99776.81
2018-01-01T04:20:50.512Z,99771.77
2018-01-01T04:23:16.928Z,99770.41
2018-01-01T04:25:43.403Z,99774.61
2018-01-01T04:28:09.820Z,99768.03
2018-01-01T04:30:36.211Z,99765.59
2018-01-01T04:33:02.648Z,99764.41
2018-01-01T04:35:29.041Z,99762.39
2018-01-01T04:37:55.443Z,99761.53
2018-01-01T04:40:21.879Z,99769.88
2018-01-01T04:42:48.331Z,99764.62
2018-01-01T04:45:14.674Z,99759.84
2018-01-01T04:47:41.167Z,99767.39
2018-01-01T04:50:07.639Z,99762.13
2018-01-01T04:52:34.108Z,99763.27
2018-01-01T04:55:00.511Z,99761.21
2018-01-01T04:57:26.918Z,99763.59
2018-01-01T04:59:53.318Z,99762.28
2018-01-01T05:02:19.743Z,99761.17
2018-01-01T05:04:46.135Z,99768.19
2018-01-01T05:07:12.557Z,99769.48
2018-01-01T05:09:38.999Z,99770.03
2018-01-01T05:12:05.396Z,99771.50
2018-01-01T05:14:31.843Z,99774.16
2018-01-01T05:16:58.303Z,99766.41
2018-01-01T05:19:24.707Z,99769.22
2018-01-01T05:21:51.156Z,99766.67
2018-01-01T05:24:17.691Z,99766.08
2018-01-01T05:26:44.100Z,99757.19
2018-01-01T05:29:10.542Z,99758.87
2018-01-01T05:31:36.942Z,99762.11
2018-01-01T05:34:03.328Z,99757.36
2018-01-01T05:36:29.703Z,99765.73
2018-01-01T05:38:56.122Z,99761.98
2018-01-01T05:41:22.479Z,99765.32
2018-01-01T05:43:48.929Z,99766.63
2018-01-01T05:46:15.398Z,99762.52
2018-01-01T05:48:42.056Z,99767.00
2018-01-01T05:51:08.443Z,99764.83
2018-01-01T05:53:34.926Z,99770.38
2018-01-01T05:56:01.296Z,99771.67
2018-01-01T05:58:27.695Z,99772.55
2018-01-01T06:00:54.104Z,99771.14
2018-01-01T06:03:20.477Z,99769.67
2018-01-01T06:05:46.951Z,99777.75
2018-01-01T06:08:13.392Z,99772.37
2018-01-01T06:10:39.764Z,99782.14
2018-01-01T06:13:06.140Z,99772.37
2018-01-01T06:15:32.622Z,99769.01
2018-01-01T06:17:59.016Z,99771.55
2018-01-01T06:20:25.472Z,99769.72
2018-01-01T06:22:51.875Z,99779.97
2018-01-01T06:25:18.277Z,99780.24
2018-01-01T06:27:44.712Z,99785.06
2018-01-01T06:30:11.246Z,99776.77
2018-01-01T06:32:37.657Z,99781.20
2018-01-01T06:35:04.006Z,99787.87
2018-01-01T06:37:30.645Z,99786.91
2018-01-01T06:39:57.159Z,99790.38
2018-01-01T06:42:23.523Z,99789.72
2018-01-01T06:44:49.980Z,99795.54
2018-01-01T06:47:16.356Z,99792.12
2018-01-01T06:49:42.791Z,99799.23
2018-01-01T06:52:09.239Z,99804.65
2018-01-01T06:54:35.607Z,99802.31
2018-01-01T06:57:02.085Z,99807.45
2018-01-01T06:59:28.560Z,99795.14
2018-01-01T07:01:54.891Z,99804.58
2018-01-01T07:04:21.319Z,99804.34
2018-01-01T07:06:47.800Z,99804.61
2018-01-01T07:09:14.154Z,99804.61
2018-01-01T07:11:40.528Z,99802.80
2018-01-01T07:14:06.973Z,99811.36
2018-01-01T07:16:33.328Z,99813.04
2018-01-01T07:18:59.827Z,99815.65
2018-01-01T07:21:26.271Z,99811.81
2018-01-01T07:23:52.650Z,99813.04
2018-01-01T07:26:19.067Z,99809.15
2018-01-01T07:28:45.495Z,99807.85
2018-01-01T07:31:11.919Z,99810.88
2018-01-01T07:33:38.323Z,99814.41
2018-01-01T07:36:04.869Z,99804.13
2018-01-01T07:38:31.251Z,99809.59
2018-01-01T07:40:57.655Z,99812.39
2018-01-01T07:43:24.084Z,99818.27
2018-01-01T07:45:50.477Z,99806.78
2018-01-01T07:48:17.393Z,99805.16
2018-01-01T07:50:43.868Z,99808.94
2018-01-01T07:53:10.208Z,99809.61
2018-01-01T07:55:36.630Z,99814.65
2018-01-01T07:58:03.029Z,99808.01
2018-01-01T08:00:29.452Z,99815.56
2018-01-01T08:02:55.921Z,99810.53
2018-01-01T08:05:22.347Z,99798.55
2018-01-01T08:07:48.701Z,99802.13
2018-01-01T08:10:15.035Z,99798.37
2018-01-01T08:12:41.434Z,99796.77
2018-01-01T08:15:07.855Z,99798.62
2018-01-01T08:17:34.239Z,99793.47
2018-01-01T08:20:00.683Z,99803.61
2018-01-01T08:22:27.087Z,99798.58
2018-01-01T08:24:53.484Z,99796.92
2018-01-01T08:27:19.884Z,99802.23
2018-01-01T08:29:46.277Z,99804.38
2018-01-01T08:32:12.680Z,99802.39
2018-01-01T08:34:39.176Z,99799.70
2018-01-01T08:37:05.595Z,99795.50
2018-01-01T08:39:31.989Z,99790.45
2018-01-01T08:41:58.420Z,99790.57
2018-01-01T08:44:24.807Z,99784.83
2018-01-01T08:46:51.202Z,99783.78
2018-01-01T08:49:17.615Z,99774.89
2018-01-01T08:51:44.029Z,99769.87
2018-01-01T08:54:10.490Z,99765.59
2018-01-01T08:56:36.987Z,99763.73
2018-01-01T08:59:03.320Z,99752.57
2018-01-01T09:01:29.723Z,99750.16
2018-01-01T09:03:56.129Z,99753.16
2018-01-01T09:06:22.595Z,99748.03
2018-01-01T09:08:48.995Z,99746.72
2018-01-01T09:11:15.436Z,99740.64
2018-01-01T09:13:41.842Z,99737.69
2018-01-01T09:16:08.207Z,99738.74
2018-01-01T09:18:34.615Z,99729.94
2018-01-01T09:21:01.011Z,99727.32
2018-01-01T09:23:27.391Z,99725.73
2018-01-01T09:25:53.819Z,99718.39
2018-01-01T09:28:20.218Z,99715.70
2018-01-01T09:30:46.587Z,99717.62
2018-01-01T09:33:13.023Z,99711.59
2018-01-01T09:35:39.439Z,99698.63
2018-01-01T09:38:05.787Z,99698.32
2018-01-01T09:40:32.178Z,99696.28
2018-01-01T09:42:58.551Z,99698.20
2018-01-01T09:45:24.987Z,99698.67
2018-01-01T09:47:51.463Z,99697.41
2018-01-01T09:50:17.828Z,99690.38
2018-01-01T09:52:44.207Z,99686.42
2018-01-01T09:55:10.667Z,99683.38
2018-01-01T09:57:37.097Z,99683.42
2018-01-01T10:00:03.568Z,99689.47
2018-01-01T10:02:30.011Z,99682.00
2018-01-01T10:04:56.451Z,99669.29
2018-01-01T10:07:22.870Z,99667.33
2018-01-01T10:09:49.247Z,99659.70
2018-01-01T10:12:15.623Z,99655.73
2018-01-01T10:14:42.019Z,99649.06
2018-01-01T10:17:08.465Z,99643.89
2018-01-01T10:19:34.847Z,99648.13
2018-01-01T10:22:01.360Z,99646.88
2018-01-01T10:24:27.799Z,99640.30
2018-01-01T10:26:54.195Z,99630.59
2018-01-01T10:29:20.721Z,99627.46
2018-01-01T10:31:47.152Z,99628.86
2018-01-01T10:34:13.546Z,99619.04
2018-01-01T10:36:39.979Z,99629.87
2018-01-01T10:39:06.356Z,99617.00
2018-01-01T10:41:32.772Z,99615.49
2018-01-01T10:43:59.149Z,99611.91
2018-01-01T10:46:25.567Z,99608.81
2018-01-01T10:48:51.991Z,99606.31
2018-01-01T10:51:18.452Z,99609.28
2018-01-01T10:53:44.899Z,99600.32
2018-01-01T10:56:11.288Z,99600.13
2018-01-01T10:58:37.659Z,99593.09
2018-01-01T11:01:04.128Z,99586.26
2018-01-01T11:03:30.536Z,99578.22
2018-01-01T11:05:56.930Z,99577.35
2018-01-01T11:08:23.363Z,99573.46
2018-01-01T11:10:49.850Z,99578.09
2018-01-01T11:13:16.238Z,99562.43
2018-01-01T11:15:42.673Z,99563.03
2018-01-01T11:18:09.063Z,99563.58
2018-01-01T11:20:35.499Z,99560.78
2018-01-01T11:23:01.948Z,99551.30
2018-01-01T11:25:28.470Z,99554.44
2018-01-01T11:27:54.880Z,99549.67
2018-01-01T11:30:21.372Z,99555.62
2018-01-01T11:32:47.739Z,99554.99
2018-01-01T11:35:14.160Z,99554.84
2018-01-01T11:37:40.563Z,99558.52
2018-01-01T11:40:06.944Z,99556.38
2018-01-01T11:42:33.310Z,99554.00
2018-01-01T11:44:59.796Z,99547.95
2018-01-01T11:47:26.232Z,99550.68
2018-01-01T11:49:52.628Z,99540.11
2018-01-01T11:52:19.041Z,99540.98
2018-01-01T11:54:45.427Z,99534.89
2018-01-01T11:57:11.848Z,99530.80
2018-01-01T11:59:38.259Z,99526.44
2018-01-01T12:02:04.651Z,99525.32
2018-01-01T12:04:30.987Z,99527.47
2018-01-01T12:06:57.423Z,99526.65
2018-01-01T12:09:30.973Z,99530.45
2018-01-01T12:11:57.364Z,99523.42
2018-01-01T12:14:23.796Z,99519.02
2018-01-01T12:16:50.192Z,99515.74
2018-01-01T12:19:16.660Z,99513.85
2018-01-01T12:21:43.059Z,99508.74
2018-01-01T12:24:15.649Z,99513.85
2018-01-01T12:26:43.211Z,99507.98
2018-01-01T12:29:09.611Z,99498.19
2018-01-01T12:31:36.163Z,99497.00
2018-01-01T12:34:02.587Z,99500.73
2018-01-01T12:36:28.958Z,99502.91
2018-01-01T12:38:55.347Z,99499.02
2018-01-01T12:41:21.725Z,99501.09
2018-01-01T12:43:48.139Z,99498.41
2018-01-01T12:46:14.563Z,99505.44
2018-01-01T12:48:40.970Z,99511.28
2018-01-01T12:51:07.334Z,99501.17
2018-01-01T12:53:33.736Z,99496.80
2018-01-01T12:56:00.243Z,99499.92
2018-01-01T12:58:26.643Z,99497.80
2018-01-01T13:00:53.035Z,99493.18
2018-01-01T13:03:19.471Z,99489.33
2018-01-01T13:05:45.903Z,99483.55
2018-01-01T13:08:12.259Z,99483.02
2018-01-01T13:10:38.699Z,99489.11
2018-01-01T13:13:05.098Z,99492.63
2018-01-01T13:15:31.591Z,99488.98
2018-01-01T13:17:57.999Z,99489.37
2018-01-01T13:20:24.356Z,99490.16
2018-01-01T13:22:50.839Z,99491.77
2018-01-01T13:25:17.291Z,99487.80
2018-01-01T13:27:43.677Z,99483.94
2018-01-01T13:30:10.089Z,99485.56
2018-01-01T13:32:36.545Z,99479.75
2018-01-01T13:35:02.957Z,99480.98
2018-01-01T13:37:29.387Z,99476.14
2018-01-01T13:39:55.884Z,99476.67
2018-01-01T13:42:22.288Z,99473.64
2018-01-01T13:44:48.632Z,99471.84
2018-01-01T13:47:15.144Z,99480.61
2018-01-01T13:49:41.544Z,99474.62
2018-01-01T13:52:08.009Z,99475.05
2018-01-01T13:54:34.503Z,99478.28
2018-01-01T13:57:00.917Z,99469.33
2018-01-01T13:59:27.331Z,99470.09
2018-01-01T14:01:53.766Z,99472.63
2018-01-01T14:04:20.199Z,99477.18
2018-01-01T14:06:46.547Z,99475.75
2018-01-01T14:09:12.990Z,99466.73
2018-01-01T14:11:39.344Z,99467.00
2018-01-01T14:14:05.742Z,99470.09
2018-01-01T14:16:32.135Z,99464.98
2018-01-01T14:18:58.471Z,99457.89
2018-01-01T14:21:24.981Z,99455.59
2018-01-01T14:23:51.439Z,99454.92
2018-01-01T14:26:17.844Z,99457.55
2018-01-01T14:28:44.251Z,99451.65
2018-01-01T14:31:10.723Z,99453.20
2018-01-01T14:33:37.147Z,99448.83
2018-01-01T14:36:03.559Z,99453.78
2018-01-01T14:38:29.991Z,99449.27
2018-01-01T14:40:56.394Z,99454.48
2018-01-01T14:43:22.826Z,99449.10
2018-01-01T14:45:49.312Z,99447.02
2018-01-01T14:48:15.772Z,99448.77
2018-01-01T14:50:42.155Z,99442.63
2018-01-01T14:53:10.656Z,99445.37
2018-01-01T14:55:37.072Z,99449.89
2018-01-01T14:58:03.439Z,99440.16
2018-01-01T15:00:29.879Z,99435.48
2018-01-01T15:02:56.398Z,99430.03
2018-01-01T15:05:22.770Z,99424.13
2018-01-01T15:07:49.189Z,99431.24
2018-01-01T15:10:15.638Z,99427.99
2018-01-01T15:12:42.039Z,99426.40
2018-01-01T15:15:08.477Z,99430.55
2018-01-01T15:17:35.000Z,99423.35
2018-01-01T15:20:01.602Z,99419.53
2018-01-01T15:22:28.200Z,99419.67
2018-01-01T15:24:54.604Z,99407.64
2018-01-01T15:27:21.128Z,99407.69
2018-01-01T15:29:47.572Z,99408.75
2018-01-01T15:32:14.127Z,99405.53
2018-01-01T15:34:48.926Z,99398.59
2018-01-01T15:37:15.697Z,99400.67
2018-01-01T15:39:42.181Z,99407.55
2018-01-01T15:42:09.380Z,99406.75
2018-01-01T15:44:35.815Z,99406.37
2018-01-01T15:47:02.228Z,99403.98
2018-01-01T15:49:28.663Z,99407.26
2018-01-01T15:51:55.220Z,99407.45
2018-01-01T15:54:21.603Z,99398.84
2018-01-01T15:56:48.040Z,99402.06
2018-01-01T15:59:14.430Z,99397.55
2018-01-01T16:01:40.823Z,99394.61
2018-01-01T16:04:07.235Z,99393.75
2018-01-01T16:06:33.641Z,99402.08
2018-01-01T16:09:00.026Z,99400.96
2018-01-01T16:11:26.468Z,99400.24
2018-01-01T16:13:52.872Z,99403.83
2018-01-01T16:16:19.276Z,99393.13
2018-01-01T16:18:46.575Z,99392.38
2018-01-01T16:21:13.031Z,99392.95
2018-01-01T16:23:39.395Z,99394.00
2018-01-01T16:26:05.959Z,99398.06
2018-01-01T16:28:32.566Z,99401.67
2018-01-01T16:30:58.997Z,99403.12
2018-01-01T16:33:25.468Z,99403.73
2018-01-01T16:35:51.827Z,99409.48
2018-01-01T16:38:18.223Z,99409.55
2018-01-01T16:40:44.704Z,99407.05
2018-01-01T16:43:11.184Z,99404.54
2018-01-01T16:45:38.539Z,99404.23
2018-01-01T16:48:05.100Z,99401.73
2018-01-01T16:50:31.516Z,99405.31
2018-01-01T16:52:57.951Z,99403.70
2018-01-01T16:55:24.413Z,99406.37
2018-01-01T16:57:50.881Z,99406.06
2018-01-01T17:00:17.275Z,99402.23
2018-01-01T17:02:43.716Z,99399.72
2018-01-01T17:05:10.131Z,99405.44
2018-01-01T17:07:36.656Z,99404.23
2018-01-01T17:10:03.144Z,99410.88
2018-01-01T17:12:29.556Z,99405.05
2018-01-01T17:14:56.004Z,99412.10
2018-01-01T17:17:22.495Z,99414.45
2018-01-01T17:19:48.907Z,99411.94
2018-01-01T17:22:15.396Z,99406.72
2018-01-01T17:24:41.820Z,99400.27
2018-01-01T17:27:08.281Z,99392.52
2018-01-01T17:29:34.716Z,99382.95
2018-01-01T17:32:01.200Z,99376.95
2018-01-01T17:34:27.845Z,99380.12
2018-01-01T17:36:54.302Z,99377.66
2018-01-01T17:39:20.783Z,99380.89
2018-01-01T17:41:47.232Z,99385.80
2018-01-01T17:44:13.611Z,99382.75
2018-01-01T17:46:40.052Z,99384.80
2018-01-01T17:49:06.457Z,99383.08
2018-01-01T17:51:33.219Z,99379.09
2018-01-01T17:53:59.692Z,99385.56
2018-01-01T17:56:26.133Z,99394.73
2018-01-01T17:58:52.551Z,99401.94
2018-01-01T18:01:19.048Z,99398.50
2018-01-01T18:03:48.731Z,99392.48
2018-01-01T18:06:15.130Z,99386.08
2018-01-01T18:08:41.616Z,99395.22
2018-01-01T18:11:07.995Z,99388.50
2018-01-01T18:13:34.419Z,99389.85
2018-01-01T18:16:00.823Z,99388.56
2018-01-01T18:18:27.267Z,99388.55
2018-01-01T18:20:53.639Z,99392.28
2018-01-01T18:23:20.036Z,99390.66
2018-01-01T18:25:46.412Z,99383.16
2018-01-01T18:28:12.839Z,99389.64
2018-01-01T18:30:39.267Z,99377.42
2018-01-01T18:33:05.663Z,99371.39
2018-01-01T18:35:32.040Z,99373.72
2018-01-01T18:37:58.479Z,99376.00
2018-01-01T18:40:24.835Z,99386.13
2018-01-01T18:42:51.241Z,99379.38
2018-01-01T18:45:17.699Z,99382.53
2018-01-01T18:47:44.135Z,99380.44
2018-01-01T18:50:10.491Z,99374.06
2018-01-01T18:52:36.928Z,99382.17
2018-01-01T18:55:03.319Z,99387.69
2018-01-01T18:57:29.964Z,99380.23
2018-01-01T18:59:56.354Z,99382.19
2018-01-01T19:02:22.748Z,99378.61
2018-01-01T19:04:49.244Z,99380.39
2018-01-01T19:07:15.719Z,99374.36
2018-01-01T19:09:42.143Z,99365.91
2018-01-01T19:12:08.662Z,99360.56
2018-01-01T19:14:35.118Z,99357.11
2018-01-01T19:17:01.624Z,99360.30
2018-01-01T19:19:28.080Z,99367.94
2018-01-01T19:21:54.504Z,99367.57
2018-01-01T19:24:20.918Z,99357.28
2018-01-01T19:26:47.355Z,99357.02
2018-01-01T19:29:13.784Z,99349.55
2018-01-01T19:31:40.308Z,99351.45
2018-01-01T19:34:06.767Z,99360.59
2018-01-01T19:36:33.188Z,99353.67
2018-01-01T19:38:59.559Z,99346.30
2018-01-01T19:41:25.996Z,99340.22
2018-01-01T19:43:52.468Z,99338.23
2018-01-01T19:46:18.852Z,99344.28
2018-01-01T19:48:45.214Z,99350.45
2018-01-01T19:51:11.732Z,99341.08
2018-01-01T19:53:38.103Z,99343.38
2018-01-01T19:56:04.532Z,99334.19
2018-01-01T19:58:30.967Z,99333.06
2018-01-01T20:00:57.359Z,99332.75
2018-01-01T20:03:23.747Z,99322.77
2018-01-01T20:05:50.243Z,99327.19
2018-01-01T20:08:16.632Z,99348.86
2018-01-01T20:10:43.031Z,99347.95
2018-01-01T20:13:09.487Z,99358.70
2018-01-01T20:15:35.816Z,99370.06
2018-01-01T20:18:02.264Z,99361.13
2018-01-01T20:20:28.670Z,99350.19
2018-01-01T20:22:55.051Z,99354.65
2018-01-01T20:25:21.439Z,99356.86
2018-01-01T20:27:48.007Z,99347.81
2018-01-01T20:30:14.353Z,99349.22
2018-01-01T20:32:40.720Z,99357.30
2018-01-01T20:35:07.148Z,99351.72
2018-01-01T20:37:33.508Z,99358.28
2018-01-01T20:39:59.919Z,99351.93
2018-01-01T20:42:26.379Z,99353.56
2018-01-01T20:44:52.759Z,99356.27
2018-01-01T20:47:19.179Z,99351.55
2018-01-01T20:49:45.596Z,99355.70
2018-01-01T20:52:12.094Z,99357.20
2018-01-01T20:54:38.530Z,99351.59
2018-01-01T20:57:05.002Z,99352.13
2018-01-01T20:59:31.371Z,99349.00
2018-01-01T21:01:57.793Z,99332.63
2018-01-01T21:04:24.257Z,99328.80
2018-01-01T21:06:50.703Z,99323.69
2018-01-01T21:09:17.080Z,99328.28
2018-01-01T21:11:43.499Z,99324.55
2018-01-01T21:14:10.010Z,99328.77
2018-01-01T21:16:36.430Z,99324.42
2018-01-01T21:19:02.980Z,99326.34
2018-01-01T21:21:29.392Z,99323.64
2018-01-01T21:23:55.788Z,99312.17
2018-01-01T21:26:22.535Z,99312.16
2018-01-01T21:28:49.059Z,99308.64
2018-01-01T21:31:15.395Z,99304.92
2018-01-01T21:33:41.853Z,99304.71
2018-01-01T21:36:08.313Z,99309.16
2018-01-01T21:38:34.764Z,99318.19
2018-01-01T21:41:01.289Z,99310.78
2018-01-01T21:43:27.681Z,99311.23
2018-01-01T21:45:54.062Z,99305.39
2018-01-01T21:48:20.550Z,99314.77
2018-01-01T21:50:46.939Z,99317.66
2018-01-01T21:53:13.368Z,99318.79
2018-01-01T21:55:39.824Z,99317.04
2018-01-01T21:58:06.211Z,99306.91
2018-01-01T22:00:32.666Z,99289.16
2018-01-01T22:02:59.159Z,99296.60
2018-01-01T22:05:25.507Z,99285.72
2018-01-01T22:07:51.907Z,99280.93
2018-01-01T22:10:18.348Z,99277.20
2018-01-01T22:12:44.728Z,99284.05
2018-01-01T22:15:11.139Z,99286.06
2018-01-01T22:17:37.572Z,99290.42
2018-01-01T22:20:03.931Z,99296.78
2018-01-01T22:22:30.320Z,99290.51
2018-01-01T22:24:56.751Z,99290.38
2018-01-01T22:27:23.112Z,99283.92
2018-01-01T22:29:49.483Z,99289.65
2018-01-01T22:32:15.912Z,99280.77
2018-01-01T22:34:42.355Z,99273.98
2018-01-01T22:37:08.731Z,99266.14
2018-01-01T22:39:35.147Z,99267.62
2018-01-01T22:42:01.527Z,99251.09
2018-01-01T22:44:27.903Z,99246.83
2018-01-01T22:46:54.378Z,99242.33
2018-01-01T22:49:20.794Z,99248.97
2018-01-01T22:51:47.219Z,99253.46
2018-01-01T22:54:13.683Z,99239.73
2018-01-01T22:56:40.087Z,99247.75
2018-01-01T22:59:06.494Z,99239.56
2018-01-01T23:01:32.916Z,99240.16
2018-01-01T23:03:59.387Z,99235.38
2018-01-01T23:06:25.751Z,99225.48
2018-01-01T23:08:52.232Z,99228.94
2018-01-01T23:11:18.627Z,99223.14
2018-01-01T23:13:45.027Z,99226.02
2018-01-01T23:16:11.548Z,99212.25
2018-01-01T23:18:37.947Z,99213.36
2018-01-01T23:21:04.403Z,99210.00
2018-01-01T23:23:30.832Z,99209.36
2018-01-01T23:25:57.209Z,99199.45
2018-01-01T23:28:23.607Z,99202.02
2018-01-01T23:30:50.054Z,99200.52
2018-01-01T23:33:16.388Z,99196.11
2018-01-01T23:35:42.753Z,99195.39
2018-01-01T23:38:09.235Z,99192.67
2018-01-01T23:40:35.584Z,99190.19
2018-01-01T23:43:02.021Z,99185.30
2018-01-01T23:45:28.486Z,99187.82
2018-01-01T23:47:54.961Z,99189.12
2018-01-01T23:50:21.352Z,99191.77
2018-01-01T23:52:47.799Z,99185.72
2018-01-01T23:55:14.212Z,99183.38
2018-01-01T23:57:40.624Z,99173.23
